Time;durP1;ratioP1;P1;durP2;ratioP2;P2;SDS_P1;SDS_P2;PMS_P1;PMS_P2;Temp;Humidity;BMP_temperature;BMP_pressure;BME280_temperature;BME280_humidity;BME280_pressure;Samples;Min_cycle;Max_cycle;Signal;HPM_P1;HPM_P2
2023/01/15 00:01:38;;;;;;;7.50;2.90;;;;;;;7.17;53.95;98615.61;231983;1197;138621;-69
2023/01/15 00:08:04;;;;;;;6.20;2.90;;;;;;;7.20;53.68;98611.04;231834;1196;138616;-68
2023/01/15 00:14:31;;;;;;;6.70;3.20;;;;;;;7.17;53.69;98600.83;232178;1199;138465;-70
2023/01/15 00:20:36;;;;;;;5.60;2.90;;;;;;;7.18;53.60;98590.02;232007;1196;138710;-71
2023/01/15 00:33:00;;;;;;;5.80;2.80;;;;;;;7.32;53.13;98577.05;232131;1196;139596;-72
2023/01/15 00:45:06;;;;;;;;;;;;;;;;;;;;;
2023/01/15 00:51:42;;;;;;;6.50;2.30;;;;;;;7.39;52.74;98556.35;231965;1199;140108;-67
2023/01/15 00:57:53;;;;;;;;;;;;;;;;;;;;;
2023/01/15 01:03:57;;;;;;;;;;;;;;;;;;;;;
2023/01/15 01:09:55;;;;;;;4.10;2.20;;;;;;;7.55;51.96;98513.60;232093;1196;126636;-68
2023/01/15 01:16:04;;;;;;;4.70;2.20;;;;;;;7.51;51.81;98506.44;232104;1197;138891;-68
2023/01/15 01:22:30;;;;;;;5.60;2.10;;;;;;;7.52;51.73;98498.95;231877;1196;138788;-69
2023/01/15 01:52:52;;;;;;;4.20;1.60;;;;;;;7.79;50.11;98445.77;235387;1190;651848;-66
2023/01/15 01:59:03;;;;;;;3.40;1.50;;;;;;;7.94;49.49;98431.11;236912;1182;138438;-69
2023/01/15 02:53:55;;;;;;;3.60;1.50;;;;;;;8.26;48.06;98379.83;236123;1191;138437;-64
2023/01/15 03:47:02;;;;;;;;;;;;;;;;;;;;;
2023/01/15 03:53:14;;;;;;;2.30;1.70;;;;;;;8.49;47.48;98350.97;234055;1199;138338;-67
2023/01/15 05:45:53;;;;;;;;;;;;;;;;;;;;;
2023/01/15 06:26:54;;;;;;;14.80;12.50;;;;;;;9.29;46.28;98166.37;230614;1214;650274;-68
2023/01/15 06:32:28;;;;;;;3.00;2.20;;;;;;;9.35;46.30;98164.17;232554;1196;138467;-70
2023/01/15 06:39:04;;;;;;;;;;;;;;;;;;;;;
2023/01/15 07:11:56;;;;;;;3.70;2.10;;;;;;;9.39;45.61;98144.80;231359;1202;138629;-71
2023/01/15 08:47:31;;;;;;;4.20;1.60;;;;;;;10.22;43.64;98117.29;230054;1213;647222;-68
2023/01/15 08:53:34;;;;;;;3.60;1.80;;;;;;;10.31;42.78;98117.53;231437;1198;139967;-66
2023/01/15 08:59:31;;;;;;;2.30;1.60;;;;;;;10.34;42.53;98117.13;231386;1200;138966;-69
2023/01/15 09:19:18;;;;;;;;;;;;;;;10.47;42.33;98107.28;231456;1200;138760;-65
2023/01/15 09:25:03;;;;;;;36.40;22.40;;;;;;;10.48;41.73;98097.61;232182;1195;125262;-64
2023/01/15 09:31:07;;;;;;;;;;;;;;;;;;;;;
2023/01/15 09:44:11;;;;;;;2.70;1.70;;;;;;;10.52;41.20;98071.52;231571;1200;140572;-64
2023/01/15 09:51:34;;;;;;;4.50;2.00;;;;;;;10.55;41.78;98071.48;232313;1195;140133;-65
2023/01/15 09:57:55;;;;;;;;;;;;;;;;;;;;;
2023/01/15 10:03:44;;;;;;;3.10;1.50;;;;;;;10.66;40.93;98059.69;232041;1199;139030;-65
2023/01/15 10:09:51;;;;;;;2.40;1.50;;;;;;;10.69;40.96;98061.38;234507;1196;138662;-66
2023/01/15 10:16:21;;;;;;;1.70;1.30;;;;;;;10.76;40.86;98059.58;234439;1196;138617;-68
2023/01/15 10:22:40;;;;;;;;;;;;;;;;;;;;;
2023/01/15 10:28:58;;;;;;;6.20;3.30;;;;;;;10.90;40.27;98056.36;234614;1193;139093;-68
2023/01/15 10:35:06;;;;;;;5.00;2.20;;;;;;;10.98;39.83;98051.44;234601;1193;138711;-69
2023/01/15 10:41:21;;;;;;;;;;;;;;;;;;;;;
2023/01/15 10:47:32;;;;;;;3.40;1.80;;;;;;;11.11;39.51;98038.36;234744;1194;139519;-66
2023/01/15 11:02:17;;;;;;;98.20;63.40;;;;;;;11.23;39.48;98029.59;231734;1199;138234;-66
2023/01/15 11:08:57;;;;;;;4.20;2.40;;;;;;;11.25;39.57;98010.04;231626;1198;139281;-67
2023/01/15 11:22:05;;;;;;;6.80;2.30;;;;;;;11.25;39.45;97993.85;231532;1203;138962;-71
2023/01/15 11:28:14;;;;;;;4.00;2.30;;;;;;;11.18;39.90;97988.63;231500;1196;138758;-70
2023/01/15 11:54:15;;;;;;;;;;;;;;;;;;;;;
2023/01/15 12:07:01;;;;;;;4.00;2.50;;;;;;;11.11;39.52;97970.73;231907;1195;139071;-69
2023/01/15 12:14:00;;;;;;;3.00;2.20;;;;;;;11.02;39.56;97962.20;232069;1198;138863;-70
2023/01/15 12:19:52;;;;;;;4.00;2.10;;;;;;;10.90;40.89;97954.63;231892;1199;138618;-69
2023/01/15 12:26:09;;;;;;;;;;;;;;;;;;;;;
2023/01/15 12:31:50;;;;;;;4.10;2.40;;;;;;;10.73;43.46;97941.83;233919;1198;139223;-67
2023/01/15 12:38:04;;;;;;;;;;;;;;;;;;;;;
2023/01/15 12:49:38;;;;;;;4.60;2.60;;;;;;;10.37;46.65;97932.98;234319;1196;138954;-68
2023/01/15 13:02:22;;;;;;;;;;;;;;;;;;;;;
2023/01/15 13:09:42;;;;;;;7.40;4.40;;;;;;;10.04;50.62;97909.52;234407;1198;139586;-64
2023/01/15 13:15:35;;;;;;;5.40;3.10;;;;;;;10.03;50.23;97902.34;234104;1194;139371;-65
2023/01/15 13:21:01;;;;;;;7.10;4.00;;;;;;;9.97;50.95;97898.00;234329;1196;139276;-65
2023/01/15 13:28:21;;;;;;;4.40;2.80;;;;;;;9.98;50.90;97889.94;234365;1196;139157;-66
2023/01/15 13:34:25;;;;;;;;;;;;;;;;;;;;;
2023/01/15 13:40:04;;;;;;;175.00;119.40;;;;;;;9.94;51.73;97887.91;233770;1199;139587;-66
2023/01/15 13:46:08;;;;;;;6.60;4.00;;;;;;;9.95;52.01;97879.73;234343;1196;140151;-66
2023/01/15 13:56:57;;;;;;;6.90;2.90;;;;;;;9.87;51.81;97876.13;230610;1210;644959;-66
2023/01/15 14:03:26;;;;;;;;;;;;;;;;;;;;;
2023/01/15 14:09:26;;;;;;;6.10;3.10;;;;;;;9.75;52.00;97871.73;232176;1194;138210;-71
2023/01/15 14:16:36;;;;;;;48.50;30.50;;;;;;;9.79;52.38;97870.89;232410;1195;139256;-70
2023/01/15 14:22:18;;;;;;;9.60;5.80;;;;;;;9.96;54.04;97860.52;232250;1196;138631;-67
2023/01/15 14:28:06;;;;;;;4.40;3.00;;;;;;;9.99;51.61;97847.52;234507;1193;139655;-70
2023/01/15 14:34:29;;;;;;;5.70;3.20;;;;;;;9.97;50.96;97844.19;234659;1196;138175;-68
2023/01/15 14:40:14;;;;;;;4.40;3.20;;;;;;;9.96;50.86;97839.23;234558;1193;138794;-66
2023/01/15 14:46:24;;;;;;;5.90;3.20;;;;;;;9.99;50.68;97838.31;234653;1194;138963;-64
2023/01/15 14:56:37;;;;;;;4.50;3.00;;;;;;;10.01;50.27;97834.59;230348;1215;647231;-68
2023/01/15 15:02:31;;;;;;;;;;;;;;;;;;;;;
2023/01/15 15:07:42;;;;;;;4.60;3.30;;;;;;;9.97;50.85;97834.73;231523;1200;138463;-68
2023/01/15 15:14:29;;;;;;;4.80;3.30;;;;;;;9.97;50.77;97830.87;231485;1199;138764;-64
2023/01/15 15:20:30;;;;;;;7.00;4.00;;;;;;;10.02;52.35;97828.19;231394;1200;138421;-68
2023/01/15 15:26:39;;;;;;;5.40;3.40;;;;;;;10.06;51.48;97828.91;231334;1200;138321;-66
2023/01/15 15:32:41;;;;;;;;;;;;;;;;;;;;;
2023/01/15 15:39:07;;;;;;;6.90;3.60;;;;;;;9.93;51.64;97829.79;231508;1200;138557;-65
2023/01/15 15:51:14;;;;;;;4.20;3.20;;;;;;;9.84;52.14;97831.13;231386;1200;140187;-66
2023/01/15 15:57:36;;;;;;;;;;;;;;;;;;;;;
2023/01/15 16:03:33;;;;;;;5.40;3.30;;;;;;;9.83;52.32;97816.52;233944;1200;139070;-66
2023/01/15 16:09:03;;;;;;;;;;;;;;;;;;;;;
2023/01/15 16:14:37;;;;;;;50.90;31.80;;;;;;;9.94;53.39;97827.17;233842;1202;139129;-66
2023/01/15 16:20:16;;;;;;;6.40;4.20;;;;;;;10.03;52.70;97828.98;233990;1200;139122;-68
2023/01/15 16:25:36;;;;;;;5.70;4.00;;;;;;;10.00;52.52;97835.77;233931;1203;139353;-66
2023/01/15 16:31:39;;;;;;;6.90;4.10;;;;;;;9.98;52.31;97839.99;233983;1201;138742;-66
2023/01/15 16:37:09;;;;;;;7.30;4.10;;;;;;;10.00;52.61;97839.14;234006;1199;139135;-66
2023/01/15 16:43:29;;;;;;;6.70;3.30;;;;;;;9.98;52.69;97840.89;233758;1203;139228;-65
2023/01/15 16:55:01;;;;;;;;;;;;;;;;;;;;;
2023/01/15 17:00:55;;;;;;;5.90;3.80;;;;;;;9.99;53.97;97856.19;231836;1198;138919;-68
2023/01/15 17:06:55;;;;;;;5.60;3.40;;;;;;;9.98;54.40;97861.94;232894;1192;138445;-69
2023/01/15 17:13:16;;;;;;;;;;;;;;;;;;;;;
2023/01/15 17:18:36;;;;;;;6.90;4.20;;;;;;;9.81;56.84;97896.05;231761;1200;138766;-70
2023/01/15 17:25:40;;;;;;;6.00;4.00;;;;;;;9.72;57.12;97911.96;232616;1192;138885;-68
2023/01/15 17:32:02;;;;;;;;;;;;;;;;;;;;;
2023/01/15 17:39:02;;;;;;;5.30;3.90;;;;;;;9.65;59.45;98000.53;232376;1193;138253;-67
2023/01/15 18:20:03;;;;;;;6.50;4.30;;;;;;;9.13;64.15;98097.27;231989;1199;138583;-70
2023/01/15 18:26:22;;;;;;;;;;;;;;;;;;;;;
2023/01/15 18:47:52;;;;;;;7.10;5.00;;;;;;;8.68;66.02;98133.69;232921;1193;138762;-68
2023/01/15 19:08:13;;;;;;;;;;;;;;;;;;;;;
2023/01/15 19:21:12;;;;;;;;;;;;;;;;;;;;;
2023/01/15 19:35:35;;;;;;;5.80;3.30;;;;;;;8.12;67.11;98166.20;232633;1196;137856;-70
2023/01/15 20:02:45;;;;;;;5.90;3.40;;;;;;;7.99;67.33;98184.03;231960;1197;138693;-66
2023/01/15 20:08:31;;;;;;;;;;;;;;;;;;;;;
2023/01/15 20:15:17;;;;;;;4.90;3.00;;;;;;;7.92;67.28;98195.85;232508;1195;138690;-67
2023/01/15 20:20:32;;;;;;;;;;;;;;;;;;;;;
2023/01/15 20:27:30;;;;;;;5.10;2.70;;;;;;;7.70;67.75;98204.64;231955;1200;140489;-68
2023/01/15 20:56:46;;;;;;;3.70;2.60;;;;;;;7.81;67.72;98203.52;230033;1212;644615;-65
2023/01/15 21:03:00;;;;;;;5.40;2.60;;;;;;;7.74;67.73;98205.11;231448;1203;138249;-65
2023/01/15 21:09:04;;;;;;;4.60;3.10;;;;;;;7.69;67.94;98198.89;231530;1201;138553;-65
2023/01/15 21:15:33;;;;;;;4.70;3.10;;;;;;;7.65;68.03;98196.48;231415;1203;139004;-66
2023/01/15 21:21:39;;;;;;;;;;;;;;;;;;;;;
2023/01/15 21:27:33;;;;;;;;;;;;;;;;;;;;;
2023/01/15 21:33:32;;;;;;;6.30;3.40;;;;;;;7.70;68.20;98194.23;234225;1197;139533;-65
2023/01/15 21:39:56;;;;;;;4.90;2.90;;;;;;;7.75;68.01;98196.72;234177;1196;138213;-66
2023/01/15 21:45:54;;;;;;;;;;;;;;;;;;;;;
2023/01/15 21:55:43;;;;;;;;;;;;;;;;;;;;;
2023/01/15 22:00:55;;;;;;;6.90;4.40;;;;;;;7.80;67.89;98199.91;233989;1200;138521;-68
2023/01/15 22:06:51;;;;;;;;;;;;;;;;;;;;;
2023/01/15 22:12:55;;;;;;;;;;;;;;;;;;;;;
2023/01/15 22:19:21;;;;;;;6.10;3.80;;;;;;;7.66;68.13;98195.73;234204;1196;138860;-67
2023/01/15 22:24:51;;;;;;;8.00;3.90;;;;;;;7.70;68.18;98195.85;234391;1200;139489;-66
2023/01/15 22:31:07;;;;;;;9.00;4.00;;;;;;;7.75;68.17;98186.65;234589;1196;139177;-66
2023/01/15 22:37:03;;;;;;;6.30;3.70;;;;;;;7.72;68.11;98190.39;234611;1195;139870;-67
2023/01/15 22:48:56;;;;;;;;;;;;;;;;;;;;;
2023/01/15 22:55:14;;;;;;;;;;;;;;;;;;;;;
2023/01/15 23:01:17;;;;;;;3.20;2.30;;;;;;;7.48;68.07;98170.77;234434;1196;139102;-65
2023/01/15 23:07:01;;;;;;;2.90;2.10;;;;;;;7.42;67.90;98169.33;234471;1196;138844;-67
2023/01/15 23:13:25;;;;;;;4.60;2.40;;;;;;;7.39;67.71;98170.09;234463;1195;140553;-65
2023/01/15 23:19:28;;;;;;;3.10;2.10;;;;;;;7.38;67.67;98170.33;234436;1196;139396;-66
2023/01/15 23:25:23;;;;;;;3.10;1.90;;;;;;;7.38;67.81;98168.41;234484;1196;140231;-67
2023/01/15 23:31:30;;;;;;;6.30;2.50;;;;;;;7.45;67.41;98175.55;234476;1195;139085;-65
2023/01/15 23:37:47;;;;;;;;;;;;;;;;;;;;;
2023/01/15 23:49:16;;;;;;;4.80;2.80;;;;;;;7.55;66.38;98162.70;234859;1193;138967;-67
2023/01/15 23:55:24;;;;;;;5.40;2.30;;;;;;;7.54;66.61;98163.61;234786;1197;139100;-67
